sensor_id;sensor_type;location;lat;lon;timestamp;P1;durP1;ratioP1;P2;durP2;ratioP2
16391;SDS011;8305;-33.882;151.134;2023-05-10T00:01:14;2.47;;;1.10;;
16391;SDS011;8305;-33.882;151.134;2023-05-10T00:03:46;2.78;;;1.17;;
16391;SDS011;8305;-33.882;151.134;2023-05-10T00:06:19;2.33;;;1.25;;
16391;SDS011;8305;-33.882;151.134;2023-05-10T00:08:50;2.50;;;1.30;;
16391;SDS011;8305;-33.882;151.134;2023-05-10T00:11:21;11.48;;;6.35;;
16391;SDS011;8305;-33.882;151.134;2023-05-10T00:13:52;2.65;;;1.35;;
16391;SDS011;8305;-33.882;151.134;2023-05-10T00:16:24;2.72;;;1.40;;
16391;SDS011;8305;-33.882;151.134;2023-05-10T00:18:55;1.33;;;1.00;;
16391;SDS011;8305;-33.882;151.134;2023-05-10T00:21:28;2.03;;;1.00;;
16391;SDS011;8305;-33.882;151.134;2023-05-10T00:23:59;2.03;;;0.93;;
16391;SDS011;8305;-33.882;151.134;2023-05-10T00:26:31;1.42;;;1.00;;
16391;SDS011;8305;-33.882;151.134;2023-05-10T00:29:02;1.88;;;0.90;;
16391;SDS011;8305;-33.882;151.134;2023-05-10T00:31:33;2.47;;;0.85;;
16391;SDS011;8305;-33.882;151.134;2023-05-10T00:34:04;1.67;;;1.00;;
16391;SDS011;8305;-33.882;151.134;2023-05-10T00:36:38;2.78;;;0.80;;
16391;SDS011;8305;-33.882;151.134;2023-05-10T00:39:09;2.20;;;1.08;;
16391;SDS011;8305;-33.882;151.134;2023-05-10T00:41:40;2.25;;;1.05;;
16391;SDS011;8305;-33.882;151.134;2023-05-10T00:44:11;1.00;;;0.60;;
16391;SDS011;8305;-33.882;151.134;2023-05-10T00:46:43;1.70;;;0.70;;
16391;SDS011;8305;-33.882;151.134;2023-05-10T00:49:14;2.35;;;0.90;;
16391;SDS011;8305;-33.882;151.134;2023-05-10T00:51:47;0.90;;;0.52;;
16391;SDS011;8305;-33.882;151.134;2023-05-10T00:54:19;1.50;;;0.60;;
16391;SDS011;8305;-33.882;151.134;2023-05-10T00:56:50;1.65;;;0.60;;
16391;SDS011;8305;-33.882;151.134;2023-05-10T00:59:23;1.33;;;0.60;;
16391;SDS011;8305;-33.882;151.134;2023-05-10T01:01:54;1.45;;;0.52;;
16391;SDS011;8305;-33.882;151.134;2023-05-10T01:04:26;0.88;;;0.57;;
16391;SDS011;8305;-33.882;151.134;2023-05-10T01:07:00;0.82;;;0.50;;
16391;SDS011;8305;-33.882;151.134;2023-05-10T01:09:32;1.88;;;0.60;;
16391;SDS011;8305;-33.882;151.134;2023-05-10T01:12:03;3.50;;;0.50;;
16391;SDS011;8305;-33.882;151.134;2023-05-10T01:14:35;3.63;;;0.50;;
16391;SDS011;8305;-33.882;151.134;2023-05-10T01:17:07;3.03;;;0.60;;
16391;SDS011;8305;-33.882;151.134;2023-05-10T01:19:39;1.02;;;0.63;;
16391;SDS011;8305;-33.882;151.134;2023-05-10T01:22:16;2.10;;;0.50;;
16391;SDS011;8305;-33.882;151.134;2023-05-10T01:25:20;2.13;;;0.68;;
16391;SDS011;8305;-33.882;151.134;2023-05-10T01:31:18;1.85;;;0.70;;
16391;SDS011;8305;-33.882;151.134;2023-05-10T01:34:00;1.67;;;0.63;;
16391;SDS011;8305;-33.882;151.134;2023-05-10T01:36:38;1.05;;;0.50;;
16391;SDS011;8305;-33.882;151.134;2023-05-10T01:39:15;1.10;;;0.40;;
16391;SDS011;8305;-33.882;151.134;2023-05-10T01:41:52;2.53;;;0.60;;
16391;SDS011;8305;-33.882;151.134;2023-05-10T01:44:29;2.38;;;0.65;;
16391;SDS011;8305;-33.882;151.134;2023-05-10T01:47:06;1.85;;;0.55;;
16391;SDS011;8305;-33.882;151.134;2023-05-10T01:49:42;2.15;;;0.45;;
16391;SDS011;8305;-33.882;151.134;2023-05-10T01:52:16;1.65;;;0.50;;
16391;SDS011;8305;-33.882;151.134;2023-05-10T01:54:53;1.40;;;0.75;;
16391;SDS011;8305;-33.882;151.134;2023-05-10T01:57:32;2.00;;;0.77;;
16391;SDS011;8305;-33.882;151.134;2023-05-10T02:00:06;1.00;;;0.47;;
16391;SDS011;8305;-33.882;151.134;2023-05-10T02:02:39;1.33;;;1.00;;
16391;SDS011;8305;-33.882;151.134;2023-05-10T02:05:16;1.25;;;0.68;;
16391;SDS011;8305;-33.882;151.134;2023-05-10T02:07:50;1.40;;;0.55;;
16391;SDS011;8305;-33.882;151.134;2023-05-10T02:10:22;1.90;;;0.70;;
16391;SDS011;8305;-33.882;151.134;2023-05-10T02:12:54;2.55;;;0.80;;
16391;SDS011;8305;-33.882;151.134;2023-05-10T02:15:27;0.82;;;0.50;;
16391;SDS011;8305;-33.882;151.134;2023-05-10T02:18:00;2.88;;;0.80;;
16391;SDS011;8305;-33.882;151.134;2023-05-10T02:20:34;2.88;;;0.73;;
16391;SDS011;8305;-33.882;151.134;2023-05-10T02:23:06;2.05;;;0.80;;
16391;SDS011;8305;-33.882;151.134;2023-05-10T02:25:38;1.98;;;0.60;;
16391;SDS011;8305;-33.882;151.134;2023-05-10T02:28:12;1.42;;;0.60;;
16391;SDS011;8305;-33.882;151.134;2023-05-10T02:30:44;3.47;;;0.55;;
16391;SDS011;8305;-33.882;151.134;2023-05-10T02:33:16;1.70;;;0.65;;
16391;SDS011;8305;-33.882;151.134;2023-05-10T02:35:50;1.63;;;0.85;;
16391;SDS011;8305;-33.882;151.134;2023-05-10T02:38:22;2.50;;;0.82;;
16391;SDS011;8305;-33.882;151.134;2023-05-10T02:40:54;3.40;;;0.98;;
16391;SDS011;8305;-33.882;151.134;2023-05-10T02:43:26;1.27;;;0.80;;
16391;SDS011;8305;-33.882;151.134;2023-05-10T02:46:01;4.22;;;0.80;;
16391;SDS011;8305;-33.882;151.134;2023-05-10T02:48:34;1.23;;;0.55;;
16391;SDS011;8305;-33.882;151.134;2023-05-10T02:51:07;2.17;;;0.70;;
16391;SDS011;8305;-33.882;151.134;2023-05-10T02:53:40;2.58;;;0.80;;
16391;SDS011;8305;-33.882;151.134;2023-05-10T02:56:16;2.88;;;0.73;;
16391;SDS011;8305;-33.882;151.134;2023-05-10T02:58:54;3.45;;;0.80;;
16391;SDS011;8305;-33.882;151.134;2023-05-10T03:01:25;1.65;;;0.80;;
16391;SDS011;8305;-33.882;151.134;2023-05-10T03:03:56;3.80;;;0.80;;
16391;SDS011;8305;-33.882;151.134;2023-05-10T03:06:29;2.00;;;0.80;;
16391;SDS011;8305;-33.882;151.134;2023-05-10T03:09:01;1.55;;;0.55;;
16391;SDS011;8305;-33.882;151.134;2023-05-10T03:11:37;1.85;;;0.70;;
16391;SDS011;8305;-33.882;151.134;2023-05-10T03:14:21;2.03;;;0.75;;
16391;SDS011;8305;-33.882;151.134;2023-05-10T03:16:58;3.45;;;0.90;;
16391;SDS011;8305;-33.882;151.134;2023-05-10T03:19:37;1.17;;;0.70;;
16391;SDS011;8305;-33.882;151.134;2023-05-10T03:22:14;2.38;;;0.63;;
16391;SDS011;8305;-33.882;151.134;2023-05-10T03:24:53;2.22;;;0.80;;
16391;SDS011;8305;-33.882;151.134;2023-05-10T03:27:26;1.55;;;0.73;;
16391;SDS011;8305;-33.882;151.134;2023-05-10T03:29:58;3.85;;;0.90;;
16391;SDS011;8305;-33.882;151.134;2023-05-10T03:32:30;2.70;;;0.55;;
16391;SDS011;8305;-33.882;151.134;2023-05-10T03:35:06;1.23;;;0.88;;
16391;SDS011;8305;-33.882;151.134;2023-05-10T03:37:40;2.47;;;0.70;;
16391;SDS011;8305;-33.882;151.134;2023-05-10T03:40:11;2.70;;;0.90;;
16391;SDS011;8305;-33.882;151.134;2023-05-10T03:42:43;1.67;;;0.55;;
16391;SDS011;8305;-33.882;151.134;2023-05-10T03:45:14;3.05;;;0.80;;
16391;SDS011;8305;-33.882;151.134;2023-05-10T03:47:45;2.15;;;0.70;;
16391;SDS011;8305;-33.882;151.134;2023-05-10T03:50:16;2.83;;;0.70;;
16391;SDS011;8305;-33.882;151.134;2023-05-10T03:52:49;2.20;;;0.70;;
16391;SDS011;8305;-33.882;151.134;2023-05-10T03:55:21;4.95;;;0.93;;
16391;SDS011;8305;-33.882;151.134;2023-05-10T03:57:52;3.38;;;0.73;;
16391;SDS011;8305;-33.882;151.134;2023-05-10T04:00:23;1.92;;;0.70;;
16391;SDS011;8305;-33.882;151.134;2023-05-10T04:02:54;1.15;;;0.50;;
16391;SDS011;8305;-33.882;151.134;2023-05-10T04:05:26;2.05;;;0.77;;
16391;SDS011;8305;-33.882;151.134;2023-05-10T04:07:59;1.83;;;0.60;;
16391;SDS011;8305;-33.882;151.134;2023-05-10T04:10:30;2.30;;;0.88;;
16391;SDS011;8305;-33.882;151.134;2023-05-10T04:13:01;2.00;;;0.98;;
16391;SDS011;8305;-33.882;151.134;2023-05-10T04:15:32;3.67;;;1.00;;
16391;SDS011;8305;-33.882;151.134;2023-05-10T04:18:04;3.20;;;0.95;;
16391;SDS011;8305;-33.882;151.134;2023-05-10T04:20:35;3.22;;;1.13;;
16391;SDS011;8305;-33.882;151.134;2023-05-10T04:23:08;4.15;;;0.90;;
16391;SDS011;8305;-33.882;151.134;2023-05-10T04:25:40;2.92;;;0.95;;
16391;SDS011;8305;-33.882;151.134;2023-05-10T04:28:11;4.53;;;1.13;;
16391;SDS011;8305;-33.882;151.134;2023-05-10T04:30:42;3.92;;;1.05;;
16391;SDS011;8305;-33.882;151.134;2023-05-10T04:33:13;3.10;;;1.23;;
16391;SDS011;8305;-33.882;151.134;2023-05-10T04:35:44;4.30;;;1.17;;
16391;SDS011;8305;-33.882;151.134;2023-05-10T04:38:18;4.22;;;1.00;;
16391;SDS011;8305;-33.882;151.134;2023-05-10T04:40:49;5.03;;;1.13;;
16391;SDS011;8305;-33.882;151.134;2023-05-10T04:43:21;3.20;;;0.88;;
16391;SDS011;8305;-33.882;151.134;2023-05-10T04:45:52;4.15;;;0.88;;
16391;SDS011;8305;-33.882;151.134;2023-05-10T04:48:25;4.03;;;1.00;;
16391;SDS011;8305;-33.882;151.134;2023-05-10T04:50:56;2.95;;;1.00;;
16391;SDS011;8305;-33.882;151.134;2023-05-10T04:53:29;1.92;;;0.98;;
16391;SDS011;8305;-33.882;151.134;2023-05-10T04:56:00;4.00;;;1.13;;
16391;SDS011;8305;-33.882;151.134;2023-05-10T04:58:31;4.13;;;0.93;;
16391;SDS011;8305;-33.882;151.134;2023-05-10T05:01:06;2.72;;;1.10;;
16391;SDS011;8305;-33.882;151.134;2023-05-10T05:03:37;4.90;;;1.00;;
16391;SDS011;8305;-33.882;151.134;2023-05-10T05:06:09;2.85;;;1.00;;
16391;SDS011;8305;-33.882;151.134;2023-05-10T05:08:42;4.22;;;0.95;;
16391;SDS011;8305;-33.882;151.134;2023-05-10T05:11:13;2.40;;;0.90;;
16391;SDS011;8305;-33.882;151.134;2023-05-10T05:13:44;3.28;;;0.95;;
16391;SDS011;8305;-33.882;151.134;2023-05-10T05:16:15;1.85;;;0.80;;
16391;SDS011;8305;-33.882;151.134;2023-05-10T05:18:46;5.00;;;1.08;;
16391;SDS011;8305;-33.882;151.134;2023-05-10T05:21:17;4.47;;;1.23;;
16391;SDS011;8305;-33.882;151.134;2023-05-10T05:23:50;4.10;;;1.08;;
16391;SDS011;8305;-33.882;151.134;2023-05-10T05:26:21;2.95;;;0.90;;
16391;SDS011;8305;-33.882;151.134;2023-05-10T05:28:53;2.40;;;1.02;;
16391;SDS011;8305;-33.882;151.134;2023-05-10T05:31:24;4.75;;;0.80;;
16391;SDS011;8305;-33.882;151.134;2023-05-10T05:33:56;5.13;;;1.00;;
16391;SDS011;8305;-33.882;151.134;2023-05-10T05:36:27;4.50;;;0.80;;
16391;SDS011;8305;-33.882;151.134;2023-05-10T05:39:01;4.18;;;0.90;;
16391;SDS011;8305;-33.882;151.134;2023-05-10T05:41:32;2.33;;;1.00;;
16391;SDS011;8305;-33.882;151.134;2023-05-10T05:44:03;5.55;;;0.98;;
16391;SDS011;8305;-33.882;151.134;2023-05-10T05:46:34;2.13;;;0.85;;
16391;SDS011;8305;-33.882;151.134;2023-05-10T05:49:05;3.55;;;1.08;;
16391;SDS011;8305;-33.882;151.134;2023-05-10T05:51:36;3.40;;;1.00;;
16391;SDS011;8305;-33.882;151.134;2023-05-10T05:54:09;2.88;;;0.90;;
16391;SDS011;8305;-33.882;151.134;2023-05-10T05:56:40;5.05;;;1.00;;
16391;SDS011;8305;-33.882;151.134;2023-05-10T05:59:11;2.80;;;0.98;;
16391;SDS011;8305;-33.882;151.134;2023-05-10T06:01:42;4.65;;;1.00;;
16391;SDS011;8305;-33.882;151.134;2023-05-10T06:04:14;2.35;;;0.90;;
16391;SDS011;8305;-33.882;151.134;2023-05-10T06:06:45;3.45;;;0.80;;
16391;SDS011;8305;-33.882;151.134;2023-05-10T06:09:18;2.55;;;0.98;;
16391;SDS011;8305;-33.882;151.134;2023-05-10T06:11:50;2.63;;;1.08;;
16391;SDS011;8305;-33.882;151.134;2023-05-10T06:14:21;4.47;;;0.93;;
16391;SDS011;8305;-33.882;151.134;2023-05-10T06:16:52;3.47;;;0.90;;
16391;SDS011;8305;-33.882;151.134;2023-05-10T06:19:25;3.05;;;0.90;;
16391;SDS011;8305;-33.882;151.134;2023-05-10T06:21:57;2.45;;;0.82;;
16391;SDS011;8305;-33.882;151.134;2023-05-10T06:24:30;3.47;;;0.70;;
16391;SDS011;8305;-33.882;151.134;2023-05-10T06:27:01;3.55;;;1.20;;
16391;SDS011;8305;-33.882;151.134;2023-05-10T06:29:32;2.90;;;1.00;;
16391;SDS011;8305;-33.882;151.134;2023-05-10T06:32:03;3.53;;;0.93;;
16391;SDS011;8305;-33.882;151.134;2023-05-10T06:34:34;3.13;;;0.95;;
16391;SDS011;8305;-33.882;151.134;2023-05-10T06:37:06;4.60;;;1.02;;
16391;SDS011;8305;-33.882;151.134;2023-05-10T06:39:39;2.88;;;0.93;;
16391;SDS011;8305;-33.882;151.134;2023-05-10T06:42:10;5.68;;;1.00;;
16391;SDS011;8305;-33.882;151.134;2023-05-10T06:44:41;3.25;;;1.10;;
16391;SDS011;8305;-33.882;151.134;2023-05-10T06:47:12;4.13;;;1.10;;
16391;SDS011;8305;-33.882;151.134;2023-05-10T06:49:43;3.85;;;1.08;;
16391;SDS011;8305;-33.882;151.134;2023-05-10T06:52:14;4.35;;;1.00;;
16391;SDS011;8305;-33.882;151.134;2023-05-10T06:54:47;1.00;;;0.63;;
16391;SDS011;8305;-33.882;151.134;2023-05-10T06:57:18;2.67;;;0.80;;
16391;SDS011;8305;-33.882;151.134;2023-05-10T06:59:49;3.63;;;1.10;;
16391;SDS011;8305;-33.882;151.134;2023-05-10T07:02:22;3.22;;;0.95;;
16391;SDS011;8305;-33.882;151.134;2023-05-10T07:04:53;3.55;;;0.80;;
16391;SDS011;8305;-33.882;151.134;2023-05-10T07:07:24;3.28;;;1.00;;
16391;SDS011;8305;-33.882;151.134;2023-05-10T07:09:57;2.70;;;1.08;;
16391;SDS011;8305;-33.882;151.134;2023-05-10T07:12:28;5.85;;;1.10;;
16391;SDS011;8305;-33.882;151.134;2023-05-10T07:14:59;2.83;;;1.10;;
16391;SDS011;8305;-33.882;151.134;2023-05-10T07:17:30;2.90;;;1.20;;
16391;SDS011;8305;-33.882;151.134;2023-05-10T07:20:01;4.60;;;1.17;;
16391;SDS011;8305;-33.882;151.134;2023-05-10T07:22:33;4.50;;;1.00;;
16391;SDS011;8305;-33.882;151.134;2023-05-10T07:25:08;5.00;;;1.60;;
16391;SDS011;8305;-33.882;151.134;2023-05-10T07:27:39;4.97;;;1.50;;
16391;SDS011;8305;-33.882;151.134;2023-05-10T07:30:11;4.50;;;1.02;;
16391;SDS011;8305;-33.882;151.134;2023-05-10T07:32:43;3.13;;;1.23;;
16391;SDS011;8305;-33.882;151.134;2023-05-10T07:35:14;5.82;;;1.30;;
16391;SDS011;8305;-33.882;151.134;2023-05-10T07:37:45;3.25;;;1.10;;
16391;SDS011;8305;-33.882;151.134;2023-05-10T07:40:18;2.42;;;1.00;;
16391;SDS011;8305;-33.882;151.134;2023-05-10T07:42:49;4.78;;;1.38;;
16391;SDS011;8305;-33.882;151.134;2023-05-10T07:45:21;5.20;;;1.08;;
16391;SDS011;8305;-33.882;151.134;2023-05-10T07:47:52;4.03;;;1.30;;
16391;SDS011;8305;-33.882;151.134;2023-05-10T07:50:23;3.25;;;1.30;;
16391;SDS011;8305;-33.882;151.134;2023-05-10T07:52:54;6.72;;;1.50;;
16391;SDS011;8305;-33.882;151.134;2023-05-10T07:55:27;4.55;;;1.98;;
16391;SDS011;8305;-33.882;151.134;2023-05-10T07:57:58;3.55;;;1.58;;
16391;SDS011;8305;-33.882;151.134;2023-05-10T08:00:29;4.95;;;1.70;;
16391;SDS011;8305;-33.882;151.134;2023-05-10T08:03:01;3.50;;;1.52;;
16391;SDS011;8305;-33.882;151.134;2023-05-10T08:05:32;4.00;;;1.55;;
16391;SDS011;8305;-33.882;151.134;2023-05-10T08:08:03;4.57;;;1.50;;
16391;SDS011;8305;-33.882;151.134;2023-05-10T08:10:36;6.53;;;1.90;;
16391;SDS011;8305;-33.882;151.134;2023-05-10T08:13:07;3.97;;;1.88;;
16391;SDS011;8305;-33.882;151.134;2023-05-10T08:15:38;5.05;;;1.75;;
16391;SDS011;8305;-33.882;151.134;2023-05-10T08:18:09;4.55;;;1.55;;
16391;SDS011;8305;-33.882;151.134;2023-05-10T08:20:40;5.25;;;1.60;;
16391;SDS011;8305;-33.882;151.134;2023-05-10T08:23:12;5.15;;;1.70;;
16391;SDS011;8305;-33.882;151.134;2023-05-10T08:25:45;5.18;;;1.60;;
16391;SDS011;8305;-33.882;151.134;2023-05-10T08:28:16;4.13;;;1.50;;
16391;SDS011;8305;-33.882;151.134;2023-05-10T08:30:47;4.70;;;1.60;;
16391;SDS011;8305;-33.882;151.134;2023-05-10T08:33:19;5.38;;;1.70;;
16391;SDS011;8305;-33.882;151.134;2023-05-10T08:35:51;5.95;;;1.77;;
16391;SDS011;8305;-33.882;151.134;2023-05-10T08:38:22;3.83;;;1.63;;
16391;SDS011;8305;-33.882;151.134;2023-05-10T08:40:55;5.80;;;1.95;;
16391;SDS011;8305;-33.882;151.134;2023-05-10T08:43:27;6.30;;;2.22;;
16391;SDS011;8305;-33.882;151.134;2023-05-10T08:46:00;4.20;;;1.90;;
16391;SDS011;8305;-33.882;151.134;2023-05-10T08:48:33;4.72;;;1.98;;
16391;SDS011;8305;-33.882;151.134;2023-05-10T08:51:05;5.28;;;2.17;;
16391;SDS011;8305;-33.882;151.134;2023-05-10T08:53:37;4.82;;;2.20;;
16391;SDS011;8305;-33.882;151.134;2023-05-10T08:56:11;5.68;;;2.15;;
16391;SDS011;8305;-33.882;151.134;2023-05-10T08:58:42;4.05;;;2.10;;
16391;SDS011;8305;-33.882;151.134;2023-05-10T09:01:15;8.02;;;2.38;;
16391;SDS011;8305;-33.882;151.134;2023-05-10T09:03:47;6.85;;;2.40;;
16391;SDS011;8305;-33.882;151.134;2023-05-10T09:06:19;4.55;;;1.83;;
16391;SDS011;8305;-33.882;151.134;2023-05-10T09:08:50;5.22;;;2.25;;
16391;SDS011;8305;-33.882;151.134;2023-05-10T09:11:24;5.20;;;2.70;;
16391;SDS011;8305;-33.882;151.134;2023-05-10T09:13:56;6.72;;;2.55;;
16391;SDS011;8305;-33.882;151.134;2023-05-10T09:16:27;4.60;;;3.00;;
16391;SDS011;8305;-33.882;151.134;2023-05-10T09:18:58;5.55;;;2.40;;
16391;SDS011;8305;-33.882;151.134;2023-05-10T09:21:30;5.60;;;2.53;;
16391;SDS011;8305;-33.882;151.134;2023-05-10T09:24:03;5.82;;;2.53;;
16391;SDS011;8305;-33.882;151.134;2023-05-10T09:26:39;6.38;;;2.42;;
16391;SDS011;8305;-33.882;151.134;2023-05-10T09:29:16;5.63;;;2.38;;
16391;SDS011;8305;-33.882;151.134;2023-05-10T09:31:48;5.45;;;3.00;;
16391;SDS011;8305;-33.882;151.134;2023-05-10T09:34:22;6.90;;;2.90;;
16391;SDS011;8305;-33.882;151.134;2023-05-10T09:37:01;7.25;;;3.20;;
16391;SDS011;8305;-33.882;151.134;2023-05-10T09:39:32;7.63;;;3.15;;
16391;SDS011;8305;-33.882;151.134;2023-05-10T09:42:07;7.30;;;3.03;;
16391;SDS011;8305;-33.882;151.134;2023-05-10T09:44:38;6.82;;;3.25;;
16391;SDS011;8305;-33.882;151.134;2023-05-10T09:47:09;7.95;;;3.17;;
16391;SDS011;8305;-33.882;151.134;2023-05-10T09:49:49;6.28;;;3.40;;
16391;SDS011;8305;-33.882;151.134;2023-05-10T09:52:24;8.68;;;3.47;;
16391;SDS011;8305;-33.882;151.134;2023-05-10T09:54:55;11.32;;;3.97;;
16391;SDS011;8305;-33.882;151.134;2023-05-10T09:57:28;8.82;;;3.70;;
16391;SDS011;8305;-33.882;151.134;2023-05-10T10:00:00;9.32;;;4.00;;
16391;SDS011;8305;-33.882;151.134;2023-05-10T10:02:31;9.30;;;3.55;;
16391;SDS011;8305;-33.882;151.134;2023-05-10T10:05:03;11.15;;;4.18;;
16391;SDS011;8305;-33.882;151.134;2023-05-10T10:07:35;8.45;;;3.88;;
16391;SDS011;8305;-33.882;151.134;2023-05-10T10:10:06;7.22;;;3.90;;
16391;SDS011;8305;-33.882;151.134;2023-05-10T10:12:41;8.77;;;3.75;;
16391;SDS011;8305;-33.882;151.134;2023-05-10T10:15:13;8.70;;;3.60;;
16391;SDS011;8305;-33.882;151.134;2023-05-10T10:17:44;8.32;;;3.47;;
16391;SDS011;8305;-33.882;151.134;2023-05-10T10:20:17;8.07;;;3.10;;
16391;SDS011;8305;-33.882;151.134;2023-05-10T10:22:49;6.60;;;3.42;;
16391;SDS011;8305;-33.882;151.134;2023-05-10T10:25:20;8.52;;;3.30;;
16391;SDS011;8305;-33.882;151.134;2023-05-10T10:27:59;11.60;;;3.88;;
16391;SDS011;8305;-33.882;151.134;2023-05-10T10:30:41;12.10;;;3.60;;
16391;SDS011;8305;-33.882;151.134;2023-05-10T10:33:29;9.02;;;3.70;;
16391;SDS011;8305;-33.882;151.134;2023-05-10T10:36:09;7.85;;;3.28;;
16391;SDS011;8305;-33.882;151.134;2023-05-10T10:38:59;7.13;;;3.40;;
16391;SDS011;8305;-33.882;151.134;2023-05-10T10:41:31;8.75;;;3.60;;
16391;SDS011;8305;-33.882;151.134;2023-05-10T10:46:59;10.10;;;4.57;;
16391;SDS011;8305;-33.882;151.134;2023-05-10T10:49:32;10.63;;;4.80;;
16391;SDS011;8305;-33.882;151.134;2023-05-10T10:52:13;10.73;;;5.05;;
16391;SDS011;8305;-33.882;151.134;2023-05-10T10:54:57;10.98;;;5.72;;
16391;SDS011;8305;-33.882;151.134;2023-05-10T10:57:31;12.50;;;6.20;;
16391;SDS011;8305;-33.882;151.134;2023-05-10T11:00:21;9.88;;;5.57;;
16391;SDS011;8305;-33.882;151.134;2023-05-10T11:02:57;12.23;;;6.07;;
16391;SDS011;8305;-33.882;151.134;2023-05-10T11:05:36;13.10;;;5.18;;
16391;SDS011;8305;-33.882;151.134;2023-05-10T11:08:12;7.55;;;3.50;;
16391;SDS011;8305;-33.882;151.134;2023-05-10T11:10:52;6.68;;;3.70;;
16391;SDS011;8305;-33.882;151.134;2023-05-10T11:13:37;8.25;;;3.60;;
16391;SDS011;8305;-33.882;151.134;2023-05-10T11:16:15;7.30;;;3.70;;
16391;SDS011;8305;-33.882;151.134;2023-05-10T11:18:54;8.57;;;3.30;;
16391;SDS011;8305;-33.882;151.134;2023-05-10T11:21:28;6.05;;;3.10;;
16391;SDS011;8305;-33.882;151.134;2023-05-10T11:24:00;8.88;;;3.67;;
16391;SDS011;8305;-33.882;151.134;2023-05-10T11:26:41;8.23;;;3.60;;
16391;SDS011;8305;-33.882;151.134;2023-05-10T11:29:13;7.32;;;3.50;;
16391;SDS011;8305;-33.882;151.134;2023-05-10T11:31:47;9.82;;;3.70;;
16391;SDS011;8305;-33.882;151.134;2023-05-10T11:34:26;8.80;;;4.30;;
16391;SDS011;8305;-33.882;151.134;2023-05-10T11:36:59;9.23;;;3.80;;
16391;SDS011;8305;-33.882;151.134;2023-05-10T11:39:30;9.65;;;3.95;;
16391;SDS011;8305;-33.882;151.134;2023-05-10T11:42:02;9.13;;;4.53;;
16391;SDS011;8305;-33.882;151.134;2023-05-10T11:44:35;8.63;;;4.28;;
16391;SDS011;8305;-33.882;151.134;2023-05-10T11:47:08;9.07;;;4.20;;
16391;SDS011;8305;-33.882;151.134;2023-05-10T11:49:43;10.68;;;4.10;;
16391;SDS011;8305;-33.882;151.134;2023-05-10T11:52:14;9.10;;;4.50;;
16391;SDS011;8305;-33.882;151.134;2023-05-10T11:54:51;10.75;;;4.30;;
16391;SDS011;8305;-33.882;151.134;2023-05-10T11:57:26;9.07;;;3.97;;
16391;SDS011;8305;-33.882;151.134;2023-05-10T11:59:57;8.30;;;4.05;;
16391;SDS011;8305;-33.882;151.134;2023-05-10T12:02:31;9.15;;;4.40;;
16391;SDS011;8305;-33.882;151.134;2023-05-10T12:05:03;8.55;;;4.30;;
16391;SDS011;8305;-33.882;151.134;2023-05-10T12:07:35;10.98;;;4.40;;
16391;SDS011;8305;-33.882;151.134;2023-05-10T12:10:07;8.30;;;4.40;;
16391;SDS011;8305;-33.882;151.134;2023-05-10T12:12:40;9.43;;;4.55;;
16391;SDS011;8305;-33.882;151.134;2023-05-10T12:15:12;11.25;;;4.75;;
16391;SDS011;8305;-33.882;151.134;2023-05-10T12:17:50;7.05;;;4.22;;
16391;SDS011;8305;-33.882;151.134;2023-05-10T12:20:21;9.70;;;4.45;;
16391;SDS011;8305;-33.882;151.134;2023-05-10T12:22:54;9.88;;;4.70;;
16391;SDS011;8305;-33.882;151.134;2023-05-10T12:25:29;10.07;;;4.80;;
16391;SDS011;8305;-33.882;151.134;2023-05-10T12:28:03;10.98;;;4.72;;
16391;SDS011;8305;-33.882;151.134;2023-05-10T12:30:34;8.82;;;4.40;;
16391;SDS011;8305;-33.882;151.134;2023-05-10T12:33:11;11.88;;;4.82;;
16391;SDS011;8305;-33.882;151.134;2023-05-10T12:35:46;9.93;;;4.70;;
16391;SDS011;8305;-33.882;151.134;2023-05-10T12:38:25;10.18;;;4.95;;
16391;SDS011;8305;-33.882;151.134;2023-05-10T12:40:57;10.07;;;4.78;;
16391;SDS011;8305;-33.882;151.134;2023-05-10T12:43:29;10.38;;;4.50;;
16391;SDS011;8305;-33.882;151.134;2023-05-10T12:46:04;8.73;;;4.60;;
16391;SDS011;8305;-33.882;151.134;2023-05-10T12:48:38;8.55;;;4.57;;
16391;SDS011;8305;-33.882;151.134;2023-05-10T12:51:10;8.23;;;4.57;;
16391;SDS011;8305;-33.882;151.134;2023-05-10T12:53:43;8.90;;;4.30;;
16391;SDS011;8305;-33.882;151.134;2023-05-10T12:56:14;8.20;;;4.40;;
16391;SDS011;8305;-33.882;151.134;2023-05-10T12:58:48;9.48;;;4.43;;
16391;SDS011;8305;-33.882;151.134;2023-05-10T13:01:19;10.80;;;4.75;;
16391;SDS011;8305;-33.882;151.134;2023-05-10T13:03:52;8.68;;;4.20;;
16391;SDS011;8305;-33.882;151.134;2023-05-10T13:06:23;7.72;;;4.55;;
16391;SDS011;8305;-33.882;151.134;2023-05-10T13:08:54;11.02;;;4.65;;
16391;SDS011;8305;-33.882;151.134;2023-05-10T13:11:26;8.57;;;4.65;;
16391;SDS011;8305;-33.882;151.134;2023-05-10T13:13:57;8.55;;;4.35;;
16391;SDS011;8305;-33.882;151.134;2023-05-10T13:16:29;7.22;;;4.40;;
16391;SDS011;8305;-33.882;151.134;2023-05-10T13:19:02;7.97;;;4.35;;
16391;SDS011;8305;-33.882;151.134;2023-05-10T13:21:33;9.05;;;4.40;;
16391;SDS011;8305;-33.882;151.134;2023-05-10T13:24:04;8.85;;;4.20;;
16391;SDS011;8305;-33.882;151.134;2023-05-10T13:26:36;8.98;;;4.05;;
16391;SDS011;8305;-33.882;151.134;2023-05-10T13:29:07;6.57;;;3.47;;
16391;SDS011;8305;-33.882;151.134;2023-05-10T13:31:38;8.02;;;3.88;;
16391;SDS011;8305;-33.882;151.134;2023-05-10T13:34:11;5.78;;;4.03;;
16391;SDS011;8305;-33.882;151.134;2023-05-10T13:36:46;7.00;;;3.53;;
16391;SDS011;8305;-33.882;151.134;2023-05-10T13:39:17;10.10;;;4.00;;
16391;SDS011;8305;-33.882;151.134;2023-05-10T13:41:49;8.20;;;3.80;;
16391;SDS011;8305;-33.882;151.134;2023-05-10T13:44:20;8.70;;;4.10;;
16391;SDS011;8305;-33.882;151.134;2023-05-10T13:46:51;10.15;;;3.95;;
16391;SDS011;8305;-33.882;151.134;2023-05-10T13:49:24;6.68;;;3.63;;
16391;SDS011;8305;-33.882;151.134;2023-05-10T13:51:56;7.80;;;4.13;;
16391;SDS011;8305;-33.882;151.134;2023-05-10T13:54:32;9.73;;;3.97;;
16391;SDS011;8305;-33.882;151.134;2023-05-10T13:57:03;7.90;;;3.70;;
16391;SDS011;8305;-33.882;151.134;2023-05-10T13:59:35;8.60;;;3.85;;
16391;SDS011;8305;-33.882;151.134;2023-05-10T14:02:06;7.80;;;4.40;;
16391;SDS011;8305;-33.882;151.134;2023-05-10T14:04:41;9.93;;;4.15;;
16391;SDS011;8305;-33.882;151.134;2023-05-10T14:07:12;7.43;;;3.95;;
16391;SDS011;8305;-33.882;151.134;2023-05-10T14:09:44;12.25;;;4.10;;
16391;SDS011;8305;-33.882;151.134;2023-05-10T14:12:15;9.13;;;4.07;;
16391;SDS011;8305;-33.882;151.134;2023-05-10T14:14:46;9.40;;;4.10;;
16391;SDS011;8305;-33.882;151.134;2023-05-10T14:17:17;8.98;;;3.90;;
16391;SDS011;8305;-33.882;151.134;2023-05-10T14:19:50;7.35;;;3.97;;
16391;SDS011;8305;-33.882;151.134;2023-05-10T14:22:22;7.50;;;4.00;;
16391;SDS011;8305;-33.882;151.134;2023-05-10T14:24:53;8.60;;;3.92;;
16391;SDS011;8305;-33.882;151.134;2023-05-10T14:27:24;8.57;;;3.58;;
16391;SDS011;8305;-33.882;151.134;2023-05-10T14:29:55;9.23;;;3.58;;
16391;SDS011;8305;-33.882;151.134;2023-05-10T14:32:26;8.40;;;4.07;;
16391;SDS011;8305;-33.882;151.134;2023-05-10T14:35:00;8.82;;;4.18;;
16391;SDS011;8305;-33.882;151.134;2023-05-10T14:37:32;10.10;;;4.40;;
16391;SDS011;8305;-33.882;151.134;2023-05-10T14:40:03;13.02;;;4.72;;
16391;SDS011;8305;-33.882;151.134;2023-05-10T14:42:35;9.05;;;4.38;;
16391;SDS011;8305;-33.882;151.134;2023-05-10T14:45:06;8.48;;;4.50;;
16391;SDS011;8305;-33.882;151.134;2023-05-10T14:47:38;10.02;;;4.60;;
16391;SDS011;8305;-33.882;151.134;2023-05-10T14:50:11;9.27;;;4.38;;
16391;SDS011;8305;-33.882;151.134;2023-05-10T14:52:42;8.93;;;3.80;;
16391;SDS011;8305;-33.882;151.134;2023-05-10T14:55:14;8.75;;;3.90;;
16391;SDS011;8305;-33.882;151.134;2023-05-10T14:57:45;10.13;;;4.50;;
16391;SDS011;8305;-33.882;151.134;2023-05-10T15:00:17;8.43;;;4.05;;